Time;durP1;ratioP1;P1;durP2;ratioP2;P2;SDS_P1;SDS_P2;PMS_P1;PMS_P2;Temp;Humidity;BMP_temperature;BMP_pressure;BME280_temperature;BME280_humidity;BME280_pressure;Samples;Min_cycle;Max_cycle;Signal;HPM_P1;HPM_P2
2023/12/04 00:00:47;;;;;;;6.28;5.53;;;;;;;;;;5026796;28;20666;-75
2023/12/04 00:03:17;;;;;;;5.63;5.13;;;;;;;-142.91;0.00;100169.13;5041805;28;20645;-75
2023/12/04 00:05:44;;;;;;;6.85;5.60;;;;;;;-142.91;0.00;100169.13;5043163;28;20203;-74
2023/12/04 00:08:11;;;;;;;7.00;5.97;;;;;;;-142.91;0.00;100169.13;5040728;28;20262;-74
2023/12/04 00:10:38;;;;;;;7.20;6.32;;;;;;;-142.91;0.00;100169.13;5045335;28;20842;-75
2023/12/04 00:13:04;;;;;;;7.60;6.80;;;;;;;;;;5047006;28;20241;-74
2023/12/04 00:15:31;;;;;;;6.75;6.13;;;;;;;-142.91;0.00;100169.13;5044961;28;20211;-73
2023/12/04 00:17:57;;;;;;;16.50;9.52;;;;;;;;;;5046231;28;20253;-74
2023/12/04 00:20:26;;;;;;;8.23;6.53;;;;;;;-142.91;0.00;100169.13;5043563;28;20199;-74
2023/12/04 00:22:52;;;;;;;6.75;5.43;;;;;;;;;;5040919;28;20265;-74
2023/12/04 00:25:19;;;;;;;6.80;6.10;;;;;;;-142.91;0.00;100169.13;5041113;28;20210;-74
2023/12/04 00:27:45;;;;;;;6.78;5.93;;;;;;;-142.91;0.00;100169.13;5042033;28;20194;-73
2023/12/04 00:30:12;;;;;;;7.28;5.65;;;;;;;-142.91;0.00;100169.13;5041726;28;20273;-74
2023/12/04 00:32:39;;;;;;;6.60;5.53;;;;;;;-142.91;0.00;100169.13;5041302;28;20276;-73
2023/12/04 00:35:06;;;;;;;6.35;5.53;;;;;;;-142.91;0.00;100169.13;5040055;28;20261;-75
2023/12/04 00:37:38;;;;;;;5.75;5.20;;;;;;;23.25;0.00;100169.13;5039646;28;20211;-74
2023/12/04 00:40:07;;;;;;;6.95;6.22;;;;;;;-142.91;0.00;100169.13;5044495;28;20257;-74
2023/12/04 00:42:34;;;;;;;6.47;5.82;;;;;;;;;;5025513;28;20203;-74
2023/12/04 00:45:01;;;;;;;8.75;6.20;;;;;;;-142.91;0.00;100169.13;5042058;28;20256;-73
2023/12/04 00:47:27;;;;;;;7.13;6.40;;;;;;;-142.91;0.00;100169.13;5040464;28;20644;-76
2023/12/04 00:49:54;;;;;;;7.50;5.93;;;;;;;-142.91;0.00;100169.13;5043898;28;20222;-75
2023/12/04 00:52:21;;;;;;;6.95;6.25;;;;;;;-142.91;0.00;100169.13;5044110;28;20284;-73
2023/12/04 00:54:49;;;;;;;8.85;6.38;;;;;;;-142.91;0.00;100169.13;5042906;28;20202;-73
2023/12/04 00:57:16;;;;;;;10.77;6.40;;;;;;;-142.91;0.00;100169.13;5044067;28;20577;-76
2023/12/04 00:59:43;;;;;;;6.28;5.50;;;;;;;-142.91;0.00;100169.13;5045547;28;20711;-74
2023/12/04 01:02:10;;;;;;;8.50;5.82;;;;;;;-142.91;0.00;100169.13;5028765;28;20211;-76
2023/12/04 01:04:40;;;;;;;9.32;7.15;;;;;;;-142.91;0.00;100169.13;5045577;28;20249;-75
2023/12/04 01:07:07;;;;;;;6.90;6.25;;;;;;;-142.91;0.00;100169.13;5048328;28;20195;-75
2023/12/04 01:09:36;;;;;;;9.63;6.95;;;;;;;-142.91;0.00;100169.13;5040664;28;20220;-75
2023/12/04 01:12:05;;;;;;;8.15;6.47;;;;;;;-142.91;0.00;100169.13;5036572;28;20206;-76
2023/12/04 01:14:32;;;;;;;8.13;5.85;;;;;;;-142.91;0.00;100169.13;5039412;28;20582;-75
2023/12/04 01:16:59;;;;;;;7.70;7.00;;;;;;;-142.91;0.00;100169.13;5045029;28;20223;-74
2023/12/04 01:19:26;;;;;;;7.30;6.20;;;;;;;;;;5039365;28;20204;-73
2023/12/04 01:21:53;;;;;;;7.03;5.95;;;;;;;-142.91;0.00;100169.13;5042651;28;20632;-75
2023/12/04 01:24:21;;;;;;;6.25;5.80;;;;;;;-142.91;0.00;100169.13;5040187;28;20469;-76
2023/12/04 01:26:48;;;;;;;7.40;6.45;;;;;;;23.25;0.00;100169.13;5041296;28;20252;-75
2023/12/04 01:29:16;;;;;;;6.68;6.05;;;;;;;-142.91;0.00;100169.13;5039072;28;20276;-75
2023/12/04 01:31:43;;;;;;;6.78;6.18;;;;;;;-142.91;0.00;100169.13;5043076;28;20223;-74
2023/12/04 01:34:10;;;;;;;6.75;5.93;;;;;;;-142.91;0.00;100169.13;5043282;28;20203;-73
2023/12/04 01:36:37;;;;;;;6.03;5.50;;;;;;;-142.91;0.00;100169.13;5042808;28;20245;-76
2023/12/04 01:39:04;;;;;;;7.85;5.75;;;;;;;-142.91;0.00;100169.13;5041434;28;20217;-75
2023/12/04 01:41:31;;;;;;;6.90;6.30;;;;;;;-142.91;0.00;100169.13;5044979;28;20202;-76
2023/12/04 01:43:57;;;;;;;6.65;6.05;;;;;;;;;;5043998;28;20303;-76
2023/12/04 01:46:27;;;;;;;7.15;6.20;;;;;;;-142.91;0.00;100169.13;5042375;28;20199;-75
2023/12/04 01:48:54;;;;;;;6.60;6.00;;;;;;;-142.91;0.00;100169.13;5043543;28;20734;-76
2023/12/04 01:51:22;;;;;;;6.28;5.38;;;;;;;-142.91;0.00;100169.13;5043763;28;20342;-76
2023/12/04 01:53:49;;;;;;;5.95;5.13;;;;;;;-142.91;0.00;100169.13;5027923;28;20206;-76
2023/12/04 01:56:15;;;;;;;6.78;6.18;;;;;;;;;;5046639;28;20272;-77
2023/12/04 01:58:42;;;;;;;6.20;5.38;;;;;;;;;;5042817;28;20257;-76
2023/12/04 02:01:11;;;;;;;5.90;5.30;;;;;;;-142.91;0.00;100169.13;5046359;28;20199;-76
2023/12/04 02:03:42;;;;;;;7.10;5.90;;;;;;;-142.91;0.00;100169.13;5047413;28;20779;-76
2023/12/04 02:06:10;;;;;;;6.05;5.53;;;;;;;23.26;0.00;100169.13;5045222;28;20207;-76
2023/12/04 02:08:37;;;;;;;6.40;5.80;;;;;;;-142.91;0.00;100169.13;5041262;28;20203;-76
2023/12/04 02:11:05;;;;;;;6.07;5.55;;;;;;;-142.91;0.00;100169.13;5047916;28;20226;-75
2023/12/04 02:13:32;;;;;;;6.57;5.28;;;;;;;-142.91;0.00;100169.13;5044691;28;20310;-75
2023/12/04 02:16:05;;;;;;;5.55;4.93;;;;;;;-142.91;0.00;100169.13;5043001;28;20257;-76
2023/12/04 02:18:33;;;;;;;5.45;4.93;;;;;;;-142.91;0.00;100169.13;5040612;28;20191;-76
2023/12/04 02:21:02;;;;;;;5.82;5.25;;;;;;;-142.91;0.00;100169.13;5043839;28;20199;-76
2023/12/04 02:23:29;;;;;;;6.75;4.95;;;;;;;-142.91;0.00;100169.13;5044164;28;20249;-76
2023/12/04 02:26:00;;;;;;;6.20;5.70;;;;;;;;;;5039804;28;20202;-76
2023/12/04 02:28:31;;;;;;;5.30;4.82;;;;;;;-142.91;0.00;100169.13;5041591;28;20234;-76
2023/12/04 02:31:00;;;;;;;5.55;4.95;;;;;;;-142.91;0.00;100169.13;5039521;28;20227;-75
2023/12/04 02:33:28;;;;;;;6.90;5.35;;;;;;;-142.91;0.00;100169.13;5039528;28;20264;-76
2023/12/04 02:35:56;;;;;;;7.20;5.75;;;;;;;-142.91;0.00;100169.13;5043604;28;20203;-75
2023/12/04 02:38:23;;;;;;;5.35;4.88;;;;;;;-142.91;0.00;100169.13;5042314;28;20210;-75
2023/12/04 02:40:50;;;;;;;6.28;5.55;;;;;;;-142.91;0.00;100169.13;5040843;28;20261;-75
2023/12/04 02:43:18;;;;;;;6.03;5.38;;;;;;;-142.91;0.00;100169.13;5041084;28;20648;-75
2023/12/04 02:45:45;;;;;;;6.45;5.28;;;;;;;-142.91;0.00;100169.13;5035893;28;20249;-75
2023/12/04 02:48:12;;;;;;;5.40;4.90;;;;;;;-142.91;0.00;100169.13;5039620;28;20199;-75
2023/12/04 02:50:38;;;;;;;5.63;5.13;;;;;;;;;;5037151;28;20782;-75
2023/12/04 02:53:06;;;;;;;6.28;5.68;;;;;;;-142.91;0.00;100169.13;5041465;28;20688;-76
2023/12/04 02:55:33;;;;;;;5.37;4.83;;;;;;;-142.91;0.00;100169.13;5041842;28;20215;-75
2023/12/04 02:58:00;;;;;;;6.32;5.32;;;;;;;-142.91;0.00;100169.13;5050972;28;20203;-76
2023/12/04 03:00:28;;;;;;;7.45;5.43;;;;;;;-142.91;0.00;100169.13;5041779;28;20203;-76
2023/12/04 03:02:55;;;;;;;6.73;5.83;;;;;;;-142.91;0.00;100169.13;5045430;28;20203;-75
2023/12/04 03:05:22;;;;;;;5.47;4.80;;;;;;;-142.91;0.00;100169.13;5048567;28;20261;-75
2023/12/04 03:07:48;;;;;;;5.72;5.22;;;;;;;-142.91;0.00;100169.13;5047223;28;20203;-75
2023/12/04 03:10:15;;;;;;;5.20;4.70;;;;;;;-142.91;0.00;100169.13;5051045;28;20254;-76
2023/12/04 03:12:42;;;;;;;8.10;6.00;;;;;;;23.25;0.00;100169.13;5046334;28;20211;-75
2023/12/04 03:15:10;;;;;;;8.13;5.68;;;;;;;-142.91;0.00;100169.13;5054075;28;20275;-76
2023/12/04 03:17:39;;;;;;;3.30;3.10;;;;;;;-142.91;0.00;100169.13;5050856;28;20207;-75
2023/12/04 03:20:08;;;;;;;6.57;5.18;;;;;;;-142.91;0.00;100169.13;5049782;28;20203;-75
2023/12/04 03:22:35;;;;;;;5.57;5.10;;;;;;;;;;5045236;28;20230;-75
2023/12/04 03:25:02;;;;;;;5.63;5.03;;;;;;;-142.91;0.00;100169.13;5047371;28;20195;-75
2023/12/04 03:27:29;;;;;;;6.32;5.05;;;;;;;-142.91;0.00;100169.13;5044522;28;20195;-76
2023/12/04 03:29:56;;;;;;;8.05;5.30;;;;;;;-142.91;0.00;100169.13;5050842;28;20231;-76
2023/12/04 03:32:23;;;;;;;5.65;5.15;;;;;;;-142.91;0.00;100169.13;5044492;28;20686;-75
2023/12/04 03:34:54;;;;;;;6.93;5.00;;;;;;;-142.91;0.00;100169.13;5049006;28;20730;-76
2023/12/04 03:37:21;;;;;;;5.53;5.03;;;;;;;-142.91;0.00;100169.13;5053091;28;20195;-76
2023/12/04 03:39:48;;;;;;;5.15;4.60;;;;;;;-142.91;0.00;100169.13;5054941;28;20256;-76
2023/12/04 03:42:15;;;;;;;6.45;5.40;;;;;;;-142.91;0.00;100169.13;5046260;28;20666;-76
2023/12/04 03:44:42;;;;;;;5.82;5.18;;;;;;;-142.91;0.00;100169.13;5049126;28;20201;-76
2023/12/04 03:47:09;;;;;;;5.93;5.35;;;;;;;-142.91;0.00;100169.13;5052282;28;20203;-76
2023/12/04 03:49:37;;;;;;;6.20;5.70;;;;;;;-142.91;0.00;100169.13;5050491;28;20223;-77
2023/12/04 03:52:06;;;;;;;5.27;4.80;;;;;;;;;;5054286;28;20203;-75
2023/12/04 03:54:32;;;;;;;4.13;3.83;;;;;;;-142.91;0.00;100169.13;5050005;28;20634;-75
2023/12/04 03:56:59;;;;;;;5.23;4.70;;;;;;;-142.91;0.00;100169.13;5046819;28;20207;-77
2023/12/04 03:59:25;;;;;;;6.67;4.60;;;;;;;;;;5048259;28;20667;-76
2023/12/04 04:01:52;;;;;;;6.97;6.28;;;;;;;-142.91;0.00;100169.13;5049248;28;20199;-77
2023/12/04 04:04:19;;;;;;;6.80;6.20;;;;;;;-142.91;0.00;100169.13;5051140;28;20256;-77
2023/12/04 04:06:45;;;;;;;6.22;5.63;;;;;;;-142.91;0.00;100169.13;5046357;28;20241;-75
2023/12/04 04:09:16;;;;;;;6.10;5.05;;;;;;;23.25;0.00;100169.13;5041011;28;20206;-76
2023/12/04 04:11:43;;;;;;;7.43;5.78;;;;;;;-142.91;0.00;100169.13;5038793;28;20205;-75
2023/12/04 04:14:10;;;;;;;7.43;5.73;;;;;;;-142.91;0.00;100169.13;5043156;28;20273;-78
2023/12/04 04:16:37;;;;;;;5.45;4.90;;;;;;;-142.91;0.00;100169.13;5044883;28;20272;-75
2023/12/04 04:19:04;;;;;;;4.97;4.57;;;;;;;-142.91;0.00;100169.13;5042169;28;20747;-75
2023/12/04 04:21:31;;;;;;;6.13;4.97;;;;;;;-142.91;0.00;100169.13;5044506;28;20692;-75
2023/12/04 04:23:58;;;;;;;6.38;5.15;;;;;;;23.25;0.00;100169.13;5042738;28;20239;-77
2023/12/04 04:26:26;;;;;;;5.50;5.00;;;;;;;-142.91;0.00;100169.13;5045261;28;20299;-76
2023/12/04 04:28:53;;;;;;;5.43;4.82;;;;;;;-142.91;0.00;100169.13;5042139;28;20211;-75
2023/12/04 04:31:20;;;;;;;8.05;4.80;;;;;;;;;;5041444;28;20778;-76
2023/12/04 04:33:46;;;;;;;6.15;5.13;;;;;;;-142.91;0.00;100169.13;5025609;28;20196;-76
2023/12/04 04:36:13;;;;;;;6.20;5.60;;;;;;;-142.91;0.00;100169.13;5041687;28;20207;-76
2023/12/04 04:38:40;;;;;;;5.32;4.75;;;;;;;;;;5042493;28;20211;-77
2023/12/04 04:41:07;;;;;;;6.28;5.75;;;;;;;-142.91;0.00;100169.13;5046690;28;20273;-77
2023/12/04 04:43:35;;;;;;;12.00;4.28;;;;;;;-142.91;0.00;100169.13;5046334;28;20257;-77
2023/12/04 04:46:05;;;;;;;4.97;4.57;;;;;;;;;;5045023;28;21011;-76
2023/12/04 04:48:32;;;;;;;5.15;4.65;;;;;;;-142.91;0.00;100169.13;5046603;28;20287;-77
2023/12/04 04:50:58;;;;;;;5.00;4.50;;;;;;;-142.91;0.00;100169.13;5046559;28;20720;-78
2023/12/04 04:53:25;;;;;;;5.32;4.57;;;;;;;-142.91;0.00;100169.13;5045651;28;20210;-76
2023/12/04 04:55:55;;;;;;;6.50;5.00;;;;;;;23.25;0.00;100169.13;5047384;28;20199;-77
2023/12/04 04:58:21;;;;;;;6.90;5.07;;;;;;;-142.91;0.00;100169.13;5047637;28;20660;-76
2023/12/04 05:00:49;;;;;;;5.05;4.65;;;;;;;;;;5044738;28;20262;-76
2023/12/04 05:03:16;;;;;;;6.13;5.53;;;;;;;-142.91;0.00;100169.13;5040846;28;20672;-76
2023/12/04 05:05:43;;;;;;;5.82;5.35;;;;;;;-142.91;0.00;100169.13;5046329;28;20261;-76
2023/12/04 05:08:10;;;;;;;6.65;5.68;;;;;;;-142.91;0.00;100169.13;5043227;28;20207;-76
2023/12/04 05:10:36;;;;;;;6.50;5.32;;;;;;;;;;5045955;28;20277;-75
2023/12/04 05:13:03;;;;;;;5.05;4.43;;;;;;;-142.91;0.00;100169.13;5042642;28;20207;-76
2023/12/04 05:15:30;;;;;;;5.32;4.82;;;;;;;-142.91;0.00;100169.13;5043468;28;20293;-77
2023/12/04 05:17:58;;;;;;;5.70;5.15;;;;;;;-142.91;0.00;100169.13;5044450;28;20298;-77
2023/12/04 05:20:24;;;;;;;5.05;4.65;;;;;;;;;;5044137;28;20752;-76
2023/12/04 05:22:52;;;;;;;6.80;6.20;;;;;;;-142.91;0.00;100169.13;5040137;28;20702;-76
2023/12/04 05:25:19;;;;;;;7.70;6.47;;;;;;;-142.91;0.00;100169.13;5037874;28;20928;-76
2023/12/04 05:27:46;;;;;;;6.38;5.78;;;;;;;-142.91;0.00;100169.13;5038809;28;20280;-75
2023/12/04 05:30:13;;;;;;;6.53;5.20;;;;;;;23.25;0.00;100169.13;5049578;28;20226;-77
2023/12/04 05:32:40;;;;;;;5.78;5.20;;;;;;;-142.91;0.00;100169.13;5049527;28;20712;-76
2023/12/04 05:35:08;;;;;;;7.63;4.95;;;;;;;-142.91;0.00;100169.13;5042117;28;20199;-76
2023/12/04 05:37:35;;;;;;;6.57;5.10;;;;;;;-142.91;0.00;100169.13;5046624;28;20260;-77
2023/12/04 05:40:03;;;;;;;5.88;5.38;;;;;;;-142.91;0.00;100169.13;5043254;28;20199;-77
2023/12/04 05:42:30;;;;;;;5.30;4.85;;;;;;;-142.91;0.00;100169.13;5049192;28;20734;-77
2023/12/04 05:44:57;;;;;;;15.63;7.38;;;;;;;;;;5050883;28;20207;-78
2023/12/04 05:47:24;;;;;;;14.75;8.48;;;;;;;-142.91;0.00;100169.13;5045410;28;20234;-77
2023/12/04 05:49:51;;;;;;;7.75;5.43;;;;;;;-142.91;0.00;100169.13;5044441;28;20196;-78
2023/12/04 05:52:19;;;;;;;7.07;5.80;;;;;;;-142.91;0.00;100169.13;5045598;28;20199;-78
2023/12/04 05:54:46;;;;;;;6.07;5.43;;;;;;;-142.91;0.00;100169.13;5039384;28;20230;-77
2023/12/04 05:57:12;;;;;;;10.52;6.47;;;;;;;;;;5042624;28;20261;-77
2023/12/04 05:59:39;;;;;;;6.68;4.93;;;;;;;-142.91;0.00;100169.13;5047161;28;20259;-77
2023/12/04 06:02:06;;;;;;;8.00;5.63;;;;;;;-142.91;0.00;100169.13;5043843;28;20211;-77
2023/12/04 06:04:32;;;;;;;6.43;5.80;;;;;;;-142.91;0.00;100169.13;5043799;28;20199;-75
2023/12/04 06:06:59;;;;;;;9.35;4.93;;;;;;;-142.91;0.00;100169.13;5041916;28;20210;-75
2023/12/04 06:09:27;;;;;;;5.75;5.30;;;;;;;;;;5039420;28;20194;-77
2023/12/04 06:11:54;;;;;;;5.80;5.20;;;;;;;23.25;0.00;100169.13;5039320;28;20231;-75
2023/12/04 06:14:20;;;;;;;9.27;5.43;;;;;;;23.25;0.00;100169.13;5040837;28;20266;-77
2023/12/04 06:16:47;;;;;;;6.88;5.60;;;;;;;23.27;0.00;100169.13;5040776;28;20211;-76
2023/12/04 06:19:14;;;;;;;8.88;5.70;;;;;;;-142.91;0.00;100169.13;5041811;28;20207;-76
2023/12/04 06:21:41;;;;;;;5.55;5.00;;;;;;;-142.91;0.00;100169.13;5039053;28;20192;-77
2023/12/04 06:24:09;;;;;;;8.00;5.57;;;;;;;-142.91;0.00;100169.13;5037675;28;20260;-76
2023/12/04 06:26:37;;;;;;;6.75;5.45;;;;;;;;;;5041679;28;20195;-78
2023/12/04 06:29:04;;;;;;;6.20;5.43;;;;;;;44.04;0.00;100169.13;5039985;28;20784;-76
2023/12/04 06:31:31;;;;;;;6.55;5.82;;;;;;;24.55;0.00;100169.13;5037560;28;20614;-77
2023/12/04 06:33:59;;;;;;;5.90;5.40;;;;;;;64.84;0.00;100169.13;5042711;28;20195;-77
2023/12/04 06:36:29;;;;;;;6.50;5.82;;;;;;;-142.91;0.00;100169.13;5042722;28;20207;-76
2023/12/04 06:38:58;;;;;;;6.57;5.40;;;;;;;44.04;0.00;100169.13;5044071;28;20214;-76
2023/12/04 06:41:25;;;;;;;6.47;5.82;;;;;;;-142.91;0.00;100169.13;5043810;28;20199;-75
2023/12/04 06:43:54;;;;;;;6.00;5.50;;;;;;;-142.91;0.00;100169.13;5040997;28;20211;-76
2023/12/04 06:46:22;;;;;;;8.02;5.72;;;;;;;-142.91;0.00;100169.13;5046655;28;20253;-77
2023/12/04 06:48:53;;;;;;;5.20;4.78;;;;;;;-142.91;0.00;100169.13;5037484;28;20195;-76
2023/12/04 06:51:20;;;;;;;5.72;4.80;;;;;;;-142.91;0.00;100169.13;5045453;28;20314;-77
2023/12/04 06:53:47;;;;;;;6.53;5.82;;;;;;;-142.91;0.00;100169.13;5041432;28;20268;-77
2023/12/04 06:56:13;;;;;;;5.82;5.22;;;;;;;;;;5044161;28;20195;-78
2023/12/04 06:58:40;;;;;;;4.93;4.53;;;;;;;-142.91;0.00;100169.13;5040342;28;20199;-75
2023/12/04 07:01:10;;;;;;;4.80;4.40;;;;;;;23.25;0.00;100169.13;5042653;28;20660;-76
2023/12/04 07:03:38;;;;;;;6.75;5.10;;;;;;;-142.91;0.00;100169.13;5039656;28;20273;-77
2023/12/04 07:06:07;;;;;;;7.25;5.32;;;;;;;44.04;0.00;100169.13;5036763;28;20223;-76
2023/12/04 07:08:34;;;;;;;5.90;5.35;;;;;;;-142.91;0.00;100169.13;5039022;28;20207;-76
2023/12/04 07:11:00;;;;;;;5.95;5.28;;;;;;;-142.91;0.00;100169.13;5039605;28;20292;-76
2023/12/04 07:16:10;;;;;;;6.53;5.95;;;;;;;;;;5039569;28;20704;-77
2023/12/04 07:18:37;;;;;;;10.95;5.47;;;;;;;-142.91;0.00;100169.13;5042388;28;20200;-77
2023/12/04 07:21:04;;;;;;;6.57;5.70;;;;;;;;;;5042401;28;20212;-76
2023/12/04 07:23:31;;;;;;;7.72;5.50;;;;;;;;;;5037622;28;20299;-78
2023/12/04 07:25:58;;;;;;;6.50;5.95;;;;;;;-142.91;0.00;100169.13;5039563;28;20199;-77
2023/12/04 07:28:28;;;;;;;13.23;6.28;;;;;;;-142.91;0.00;100169.13;5041076;28;20199;-76
2023/12/04 07:30:55;;;;;;;7.53;5.93;;;;;;;;;;5038881;28;20225;-77
2023/12/04 07:33:23;;;;;;;6.60;6.00;;;;;;;-142.91;0.00;100169.13;5039680;28;20203;-76
2023/12/04 07:35:51;;;;;;;5.03;4.40;;;;;;;-142.91;0.00;100169.13;5036998;28;20208;-77
2023/12/04 07:38:17;;;;;;;5.90;5.07;;;;;;;28.45;0.00;100169.13;5036395;28;20321;-79
2023/12/04 07:40:45;;;;;;;6.18;5.45;;;;;;;-142.91;0.00;100169.13;5043533;28;20203;-76
2023/12/04 07:46:03;;;;;;;8.00;5.65;;;;;;;-142.91;0.00;100169.13;5045053;28;20599;-78
2023/12/04 07:48:31;;;;;;;5.18;4.75;;;;;;;;;;5028854;28;20207;-77
2023/12/04 07:50:59;;;;;;;7.05;5.18;;;;;;;;;;5047804;28;20276;-77
2023/12/04 07:53:27;;;;;;;5.75;5.20;;;;;;;;;;5044664;28;20207;-76
2023/12/04 07:55:53;;;;;;;8.10;5.30;;;;;;;;;;5046780;28;20261;-77
2023/12/04 07:58:20;;;;;;;5.03;4.50;;;;;;;-142.91;0.00;100169.13;5046120;28;20211;-79
2023/12/04 08:00:50;;;;;;;4.72;4.18;;;;;;;-142.91;0.00;100169.13;5042735;28;20199;-78
2023/12/04 08:03:16;;;;;;;4.88;4.47;;;;;;;-142.91;0.00;100169.13;5045216;28;20191;-77
2023/12/04 08:05:46;;;;;;;5.88;4.55;;;;;;;-142.91;0.00;100169.13;5031655;28;20204;-78
2023/12/04 08:08:12;;;;;;;9.75;4.43;;;;;;;;;;5043553;28;20203;-77
2023/12/04 08:10:39;;;;;;;4.03;3.70;;;;;;;-142.91;0.00;100169.13;5021472;28;20224;-79
2023/12/04 08:13:06;;;;;;;4.88;3.67;;;;;;;-142.91;0.00;100169.13;5027040;28;20260;-77
2023/12/04 08:15:32;;;;;;;7.35;4.57;;;;;;;-142.91;0.00;100169.13;5040531;28;20855;-75
2023/12/04 08:18:00;;;;;;;3.92;3.63;;;;;;;-142.91;0.00;100169.13;5040925;28;20757;-76
2023/12/04 08:20:26;;;;;;;4.32;3.92;;;;;;;;;;5043008;28;20202;-76
2023/12/04 08:22:54;;;;;;;7.25;4.43;;;;;;;;;;5041361;28;20235;-77
2023/12/04 08:25:21;;;;;;;6.95;4.95;;;;;;;-142.91;0.00;100169.13;5040092;28;20209;-76
2023/12/04 08:27:49;;;;;;;7.57;5.22;;;;;;;;;;5041607;28;20264;-76
2023/12/04 08:30:16;;;;;;;12.85;5.72;;;;;;;-142.91;0.00;100169.13;5042876;28;20204;-78
2023/12/04 08:32:42;;;;;;;7.63;5.22;;;;;;;;;;5043200;28;20227;-77
2023/12/04 08:35:09;;;;;;;4.15;3.78;;;;;;;-142.91;0.00;100169.13;5041256;28;20684;-79
2023/12/04 08:37:36;;;;;;;4.60;4.20;;;;;;;;;;5046885;28;20202;-73
2023/12/04 08:40:04;;;;;;;6.55;4.55;;;;;;;28.45;0.00;100169.13;5045431;28;20203;-78
2023/12/04 08:42:35;;;;;;;4.78;4.47;;;;;;;-142.91;0.00;100169.13;5043502;28;20230;-79
2023/12/04 08:45:05;;;;;;;8.80;4.80;;;;;;;-142.91;0.00;100169.13;5044697;28;20203;-77
2023/12/04 08:47:37;;;;;;;4.70;4.40;;;;;;;-142.91;0.00;100169.13;5043195;28;20205;-79
2023/12/04 08:50:04;;;;;;;4.95;4.47;;;;;;;-142.91;0.00;100169.13;5041010;28;20208;-78
2023/12/04 08:52:32;;;;;;;4.85;4.32;;;;;;;33.65;0.00;100169.13;5028474;28;20758;-77
2023/12/04 08:54:59;;;;;;;5.13;4.35;;;;;;;;;;5039130;28;20204;-79
2023/12/04 08:57:27;;;;;;;3.90;3.60;;;;;;;;;;5041952;28;20203;-78
2023/12/04 08:59:55;;;;;;;5.82;5.32;;;;;;;;;;5045033;28;20203;-78
2023/12/04 09:02:21;;;;;;;4.35;3.88;;;;;;;;;;5043564;28;20199;-77
2023/12/04 09:04:48;;;;;;;7.22;5.20;;;;;;;;;;5047301;28;20286;-76
2023/12/04 09:07:14;;;;;;;7.53;5.60;;;;;;;;;;5038826;28;20696;-78
2023/12/04 09:09:41;;;;;;;8.43;5.07;;;;;;;;;;5042571;28;20225;-78
2023/12/04 09:12:08;;;;;;;4.60;4.15;;;;;;;;;;5041982;28;20258;-77
2023/12/04 09:14:36;;;;;;;4.20;3.80;;;;;;;;;;5039894;28;20215;-75
2023/12/04 09:17:03;;;;;;;4.45;4.05;;;;;;;;;;5039170;28;20235;-76
2023/12/04 09:19:30;;;;;;;3.97;3.25;;;;;;;;;;5046417;28;20203;-77
2023/12/04 09:21:56;;;;;;;3.28;3.08;;;;;;;;;;5047074;28;20297;-77
2023/12/04 09:24:23;;;;;;;7.63;6.82;;;;;;;-142.91;0.00;100169.13;5042378;28;20257;-76
2023/12/04 09:26:50;;;;;;;10.57;8.65;;;;;;;;;;5042455;28;20837;-82
2023/12/04 09:29:23;;;;;;;4.57;4.28;;;;;;;-142.91;0.00;100169.13;5044397;28;20224;-85
2023/12/04 09:31:53;;;;;;;6.63;5.32;;;;;;;-142.91;0.00;100169.13;5043423;28;20242;-82
2023/12/04 09:34:22;;;;;;;3.83;3.22;;;;;;;-142.91;0.00;100169.13;5045056;28;20199;-83
2023/12/04 09:36:49;;;;;;;3.30;3.00;;;;;;;-142.91;0.00;100169.13;5043395;28;20210;-84
2023/12/04 09:39:19;;;;;;;3.50;3.03;;;;;;;-142.91;0.00;100169.13;5048271;28;20685;-83
2023/12/04 09:41:46;;;;;;;3.28;3.08;;;;;;;24.55;0.00;100169.13;5048412;28;20257;-82
2023/12/04 09:44:14;;;;;;;4.28;3.88;;;;;;;-142.91;0.00;100169.13;5049142;28;20199;-85
2023/12/04 09:46:41;;;;;;;3.60;3.40;;;;;;;-142.91;0.00;100169.13;5045813;28;20200;-83
2023/12/04 09:49:09;;;;;;;3.85;3.50;;;;;;;;;;5043699;28;20223;-77
2023/12/04 09:51:38;;;;;;;3.35;3.08;;;;;;;;;;5040268;28;20657;-81
2023/12/04 09:54:06;;;;;;;3.15;2.95;;;;;;;33.65;0.00;100169.13;5041430;28;20298;-80
2023/12/04 09:56:34;;;;;;;3.22;3.00;;;;;;;-142.91;0.00;100169.13;5040597;28;20199;-78
2023/12/04 09:59:01;;;;;;;4.15;3.40;;;;;;;-142.91;0.00;100169.13;5046367;28;20195;-79
2023/12/04 10:01:33;;;;;;;4.05;3.53;;;;;;;-142.91;0.00;100169.13;5044676;28;20233;-78
2023/12/04 10:04:01;;;;;;;3.70;3.40;;;;;;;-142.91;0.00;100169.13;5044058;28;20203;-80
2023/12/04 10:06:29;;;;;;;3.53;3.22;;;;;;;-142.91;0.00;100169.13;5046234;28;20203;-79
2023/12/04 10:08:57;;;;;;;3.45;3.25;;;;;;;;;;5045099;28;20195;-79
2023/12/04 10:11:24;;;;;;;6.28;3.75;;;;;;;-142.91;0.00;100169.13;5044877;28;20219;-79
2023/12/04 10:13:51;;;;;;;4.15;3.83;;;;;;;;;;5046528;28;20660;-79
2023/12/04 10:16:32;;;;;;;5.00;3.83;;;;;;;;;;5046896;28;20261;-80
2023/12/04 10:18:58;;;;;;;4.80;4.15;;;;;;;-142.91;0.00;100169.13;5046233;28;20707;-78
2023/12/04 10:21:35;;;;;;;5.30;4.32;;;;;;;-142.91;0.00;100169.13;5045483;28;20684;-80
2023/12/04 10:24:02;;;;;;;6.03;5.47;;;;;;;-142.91;0.00;100169.13;5051386;28;20234;-77
2023/12/04 10:26:28;;;;;;;4.82;4.32;;;;;;;-142.91;0.00;100169.13;5052498;28;20256;-78
2023/12/04 10:29:01;;;;;;;5.30;4.78;;;;;;;;;;5046268;28;21142;-80
2023/12/04 10:31:35;;;;;;;4.72;4.22;;;;;;;-142.91;0.00;100169.13;5045351;28;20250;-79
2023/12/04 10:34:01;;;;;;;4.75;4.35;;;;;;;106.45;0.00;100169.13;5048196;28;20234;-79
2023/12/04 10:36:29;;;;;;;4.93;3.72;;;;;;;-142.91;0.00;100169.13;5049386;28;20277;-78
2023/12/04 10:39:01;;;;;;;15.35;4.47;;;;;;;;;;5047071;28;20620;-78
2023/12/04 10:41:27;;;;;;;5.15;4.75;;;;;;;;;;5048507;28;20207;-80
2023/12/04 10:43:56;;;;;;;11.23;4.28;;;;;;;;;;5047703;28;20211;-78
2023/12/04 10:46:24;;;;;;;5.15;4.65;;;;;;;;;;5047701;28;20650;-79
2023/12/04 10:48:51;;;;;;;4.78;4.30;;;;;;;;;;5037432;28;20323;-77
2023/12/04 10:51:49;;;;;;;4.70;4.38;;;;;;;44.04;0.00;100169.13;5047395;28;20280;-78
2023/12/04 10:54:18;;;;;;;7.53;3.42;;;;;;;23.25;0.00;100169.13;5048307;28;20235;-78
2023/12/04 10:56:50;;;;;;;4.95;4.32;;;;;;;189.72;0.00;100169.13;5028642;28;20202;-78
2023/12/04 10:59:22;;;;;;;4.10;3.80;;;;;;;189.72;0.00;100169.13;5048640;28;20260;-78
2023/12/04 11:01:49;;;;;;;6.18;4.55;;;;;;;;;;5047145;28;20226;-76
2023/12/04 11:04:18;;;;;;;4.55;3.90;;;;;;;;;;5049920;28;20299;-79
2023/12/04 11:06:46;;;;;;;5.28;4.57;;;;;;;;;;5052308;28;20230;-79
2023/12/04 11:09:13;;;;;;;8.82;4.72;;;;;;;44.04;0.00;100169.13;5049645;28;20259;-78
2023/12/04 11:11:45;;;;;;;4.43;4.03;;;;;;;;;;5045800;28;21089;-79
2023/12/04 11:14:22;;;;;;;4.68;4.13;;;;;;;-142.91;0.00;100169.13;5049500;28;20672;-78
2023/12/04 11:16:49;;;;;;;4.38;3.80;;;;;;;;;;5052926;28;20202;-78
2023/12/04 11:19:25;;;;;;;4.97;4.45;;;;;;;-142.91;0.00;100169.13;5051075;28;20206;-78
2023/12/04 11:21:52;;;;;;;5.00;4.00;;;;;;;;;;5047806;28;20723;-80
2023/12/04 11:24:19;;;;;;;5.38;4.88;;;;;;;28.45;0.00;100169.13;5040269;28;20226;-78
2023/12/04 11:26:48;;;;;;;4.57;4.18;;;;;;;;;;5047283;28;20203;-79
2023/12/04 11:29:16;;;;;;;4.95;4.50;;;;;;;-142.91;0.00;100169.13;5048527;28;20211;-79
2023/12/04 11:31:44;;;;;;;4.25;3.97;;;;;;;-142.91;0.00;100169.13;5046389;28;20222;-80
2023/12/04 11:34:14;;;;;;;4.35;3.75;;;;;;;-142.91;0.00;100169.13;5048159;28;20692;-81
2023/12/04 11:36:43;;;;;;;4.10;3.72;;;;;;;44.04;0.00;100169.13;5045470;28;20208;-78
2023/12/04 11:39:23;;;;;;;4.53;4.13;;;;;;;-142.91;0.00;100169.13;5030987;28;20625;-79
2023/12/04 11:41:51;;;;;;;4.28;3.83;;;;;;;;;;5047580;28;20222;-80
2023/12/04 11:44:22;;;;;;;4.40;4.00;;;;;;;33.65;0.00;100169.13;5030911;28;20199;-77
2023/12/04 11:47:20;;;;;;;6.32;5.05;;;;;;;-142.91;0.00;100169.13;5047610;28;20589;-78
2023/12/04 11:49:47;;;;;;;5.47;4.97;;;;;;;189.72;0.00;100169.13;5048736;28;20199;-81
2023/12/04 11:52:13;;;;;;;5.60;5.10;;;;;;;;;;5047510;28;20284;-77
2023/12/04 11:54:59;;;;;;;5.93;4.90;;;;;;;-142.91;0.00;100169.13;5047682;28;20566;-80
2023/12/04 11:57:29;;;;;;;5.47;4.97;;;;;;;64.84;0.00;100169.13;5047100;28;20294;-77
2023/12/04 12:00:10;;;;;;;5.20;4.53;;;;;;;23.25;0.00;100169.13;5046155;28;20295;-79
2023/12/04 12:02:38;;;;;;;5.38;4.88;;;;;;;23.26;0.00;100169.13;5040652;28;20214;-77
2023/12/04 12:05:07;;;;;;;5.25;4.82;;;;;;;;;;5041593;28;20253;-79
2023/12/04 12:07:34;;;;;;;5.45;4.55;;;;;;;;;;5047104;28;20207;-78
2023/12/04 12:10:01;;;;;;;5.00;4.50;;;;;;;-142.91;0.00;100169.13;5048168;28;20256;-78